createdAt,value
2018-05-18T03:52:45.937Z,51.67
2018-05-18T03:55:14.101Z,57.70
2018-05-18T03:57:42.274Z,50.75
2018-05-18T04:00:10.450Z,53.30
2018-05-18T04:02:50.367Z,48.03
2018-05-18T04:05:30.318Z,41.43
2018-05-18T04:08:11.703Z,50.60
2018-05-18T04:10:46.716Z,41.67
2018-05-18T04:13:15.561Z,48.90
2018-05-18T04:15:43.729Z,42.08
2018-05-18T04:18:11.894Z,52.92
2018-05-18T04:20:40.112Z,42.15
2018-05-18T04:23:22.587Z,43.30
2018-05-18T04:25:50.757Z,44.37
2018-05-18T04:28:18.935Z,52.73
2018-05-18T04:30:47.128Z,46.60
2018-05-18T04:33:15.305Z,40.00
2018-05-18T04:35:43.487Z,42.38
2018-05-18T04:38:13.850Z,42.80
2018-05-18T04:40:42.030Z,45.50
2018-05-18T04:43:10.810Z,39.33
2018-05-18T04:45:39.006Z,38.80
2018-05-18T04:48:07.209Z,41.97
2018-05-18T04:50:35.393Z,41.80
2018-05-18T04:53:03.567Z,41.63
2018-05-18T04:55:32.796Z,39.03
2018-05-18T04:58:00.958Z,43.07
2018-05-18T05:00:29.113Z,39.80
2018-05-18T05:02:57.287Z,46.87
2018-05-18T05:05:25.463Z,38.93
2018-05-18T05:07:53.656Z,39.30
2018-05-18T05:10:21.822Z,32.97
2018-05-18T05:12:50.001Z,36.90
2018-05-18T05:15:18.188Z,41.60
2018-05-18T05:17:46.414Z,42.75
2018-05-18T05:20:14.592Z,39.08
2018-05-18T05:22:42.775Z,42.60
2018-05-18T05:25:11.849Z,37.22
2018-05-18T05:27:40.060Z,35.90
2018-05-18T05:30:08.243Z,34.63
2018-05-18T05:32:38.357Z,39.63
2018-05-18T05:35:06.579Z,35.63
2018-05-18T05:37:34.777Z,43.30
2018-05-18T05:40:03.288Z,41.25
2018-05-18T05:42:31.833Z,38.90
2018-05-18T05:45:00.011Z,47.77
2018-05-18T05:47:28.282Z,36.50
2018-05-18T05:49:56.735Z,43.27
2018-05-18T05:52:24.898Z,41.33
2018-05-18T05:54:53.048Z,43.00
2018-05-18T05:57:21.569Z,34.05
2018-05-18T05:59:49.710Z,42.40
2018-05-18T06:02:18.029Z,40.17
2018-05-18T06:04:46.252Z,37.33
2018-05-18T06:07:14.671Z,41.53
2018-05-18T06:09:42.900Z,38.00
2018-05-18T06:12:11.382Z,43.50
2018-05-18T06:14:39.532Z,36.80
2018-05-18T06:17:07.693Z,36.83
2018-05-18T06:19:35.908Z,33.33
2018-05-18T06:22:04.019Z,32.67
2018-05-18T06:24:32.185Z,43.63
2018-05-18T06:27:00.341Z,36.77
2018-05-18T06:29:28.858Z,37.63
2018-05-18T06:31:57.090Z,37.27
2018-05-18T06:34:25.238Z,34.77
2018-05-18T06:36:53.388Z,36.13
2018-05-18T06:39:21.554Z,38.28
2018-05-18T06:41:49.753Z,38.70
2018-05-18T06:44:17.930Z,36.88
2018-05-18T06:46:46.452Z,38.77
2018-05-18T06:49:14.573Z,33.07
2018-05-18T06:51:42.738Z,34.60
2018-05-18T06:54:11.242Z,35.90
2018-05-18T06:56:39.567Z,30.07
2018-05-18T06:59:07.759Z,33.72
2018-05-18T07:01:35.919Z,43.83
2018-05-18T07:04:04.152Z,37.77
2018-05-18T07:06:32.283Z,36.20
2018-05-18T07:09:00.444Z,34.43
2018-05-18T07:11:28.610Z,35.43
2018-05-18T07:13:56.786Z,32.70
2018-05-18T07:16:24.977Z,38.73
2018-05-18T07:18:53.178Z,36.40
2018-05-18T07:21:21.339Z,33.67
2018-05-18T07:23:49.497Z,42.20
2018-05-18T07:26:17.661Z,36.07
2018-05-18T07:28:45.868Z,39.63
2018-05-18T07:31:24.357Z,33.40
2018-05-18T07:33:52.590Z,35.20
2018-05-18T07:36:20.763Z,30.75
2018-05-18T07:38:48.911Z,34.80
2018-05-18T07:41:24.032Z,36.58
2018-05-18T07:43:52.304Z,31.60
2018-05-18T07:46:20.433Z,28.30
2018-05-18T07:48:48.595Z,28.83
2018-05-18T07:51:16.789Z,29.75
2018-05-18T07:53:44.970Z,26.87
2018-05-18T07:56:15.518Z,36.93
2018-05-18T07:58:43.705Z,29.50
2018-05-18T08:01:12.355Z,28.07
2018-05-18T08:03:40.536Z,37.60
2018-05-18T08:06:16.093Z,39.17
2018-05-18T08:08:44.271Z,34.88
2018-05-18T08:11:12.425Z,31.33
2018-05-18T08:13:40.579Z,33.50
2018-05-18T08:16:10.091Z,27.50
2018-05-18T08:18:38.239Z,32.40
2018-05-18T08:21:06.704Z,33.13
2018-05-18T08:23:41.789Z,26.63
2018-05-18T08:26:10.286Z,33.93
2018-05-18T08:28:50.556Z,34.80
2018-05-18T08:31:18.843Z,37.45
2018-05-18T08:33:47.270Z,29.15
2018-05-18T08:36:15.433Z,27.40
2018-05-18T08:38:43.989Z,24.95
2018-05-18T08:41:12.158Z,28.33
2018-05-18T08:43:40.453Z,22.50
2018-05-18T08:46:08.602Z,27.60
2018-05-18T08:48:36.789Z,25.30
2018-05-18T08:51:05.238Z,29.10
2018-05-18T08:53:33.370Z,29.80
2018-05-18T08:56:01.840Z,24.73
2018-05-18T08:58:30.324Z,22.67
2018-05-18T09:00:58.472Z,22.37
2018-05-18T09:03:26.652Z,24.90
2018-05-18T09:05:55.037Z,20.87
2018-05-18T09:08:23.473Z,22.80
2018-05-18T09:10:51.860Z,16.67
2018-05-18T09:13:20.087Z,25.27
2018-05-18T09:15:48.550Z,26.37
2018-05-18T09:18:16.711Z,22.90
2018-05-18T09:20:45.151Z,18.93
2018-05-18T09:23:13.287Z,22.17
2018-05-18T09:25:41.616Z,24.23
2018-05-18T09:28:10.018Z,25.17
2018-05-18T09:30:38.590Z,21.90
2018-05-18T09:33:07.069Z,21.57
2018-05-18T09:35:35.540Z,17.17
2018-05-18T09:38:03.845Z,19.63
2018-05-18T09:40:32.003Z,25.00
2018-05-18T09:43:00.140Z,27.80
2018-05-18T09:45:28.338Z,20.60
2018-05-18T09:47:56.484Z,25.60
2018-05-18T09:50:24.633Z,18.80
2018-05-18T09:52:52.798Z,22.85
2018-05-18T09:55:21.145Z,22.70
2018-05-18T09:57:49.115Z,18.00
2018-05-18T10:00:17.272Z,20.70
2018-05-18T10:02:45.458Z,15.82
2018-05-18T10:05:13.619Z,19.50
2018-05-18T10:07:41.780Z,18.30
2018-05-18T10:10:10.778Z,20.27
2018-05-18T10:12:38.911Z,20.03
2018-05-18T10:15:07.083Z,17.63
2018-05-18T10:17:35.423Z,16.37
2018-05-18T10:20:03.631Z,22.73
2018-05-18T10:22:31.782Z,23.40
2018-05-18T10:24:59.956Z,15.70
2018-05-18T10:27:28.116Z,20.77
2018-05-18T10:29:56.289Z,19.43
2018-05-18T10:32:24.444Z,19.07
2018-05-18T10:34:52.601Z,19.53
2018-05-18T10:37:22.795Z,20.77
2018-05-18T10:39:50.949Z,20.08
2018-05-18T10:42:19.421Z,22.10
2018-05-18T10:44:47.580Z,18.30
2018-05-18T10:47:15.756Z,22.13
2018-05-18T10:49:43.907Z,12.23
2018-05-18T10:52:12.077Z,21.90
2018-05-18T10:54:40.276Z,20.52
2018-05-18T10:57:08.852Z,22.43
2018-05-18T10:59:37.760Z,20.53
2018-05-18T11:02:05.936Z,20.63
2018-05-18T11:04:34.420Z,17.00
2018-05-18T11:07:02.626Z,15.00
2018-05-18T11:09:31.095Z,15.50
2018-05-18T11:11:59.294Z,14.90
2018-05-18T11:14:27.450Z,18.30
2018-05-18T11:16:55.625Z,15.30
2018-05-18T11:19:24.141Z,16.57
2018-05-18T11:21:52.274Z,18.83
2018-05-18T11:24:20.448Z,17.02
2018-05-18T11:26:48.702Z,21.85
2018-05-18T11:29:17.168Z,20.63
2018-05-18T11:31:45.480Z,20.27
2018-05-18T11:34:13.734Z,18.20
2018-05-18T11:36:41.901Z,17.10
2018-05-18T11:39:10.313Z,14.97
2018-05-18T11:41:38.452Z,22.13
2018-05-18T11:44:06.643Z,14.90
2018-05-18T11:46:35.166Z,18.48
2018-05-18T11:49:03.319Z,16.40
2018-05-18T11:51:31.482Z,19.63
2018-05-18T11:54:00.036Z,17.77
2018-05-18T11:56:28.206Z,15.10
2018-05-18T11:58:56.516Z,19.57
2018-05-18T12:01:24.893Z,19.20
2018-05-18T12:03:53.045Z,17.23
2018-05-18T12:06:21.198Z,14.43
2018-05-18T12:08:49.365Z,13.73
2018-05-18T12:11:17.522Z,17.10
2018-05-18T12:13:45.906Z,17.20
2018-05-18T12:16:14.523Z,14.85
2018-05-18T12:18:42.661Z,16.13
2018-05-18T12:21:10.816Z,15.00
2018-05-18T12:23:38.991Z,15.15
2018-05-18T12:26:07.208Z,22.97
2018-05-18T12:28:36.252Z,25.05
2018-05-18T12:31:04.456Z,16.83
2018-05-18T12:33:33.266Z,14.87
2018-05-18T12:36:01.451Z,18.00
2018-05-18T12:38:29.607Z,15.73
2018-05-18T12:40:57.773Z,17.10
2018-05-18T12:43:25.916Z,16.83
2018-05-18T12:45:54.073Z,15.40
2018-05-18T12:48:22.232Z,15.90
2018-05-18T12:50:50.403Z,17.10
2018-05-18T12:53:18.549Z,21.45
2018-05-18T12:55:46.699Z,14.07
2018-05-18T12:58:14.851Z,19.20
2018-05-18T13:00:43.001Z,25.67
2018-05-18T13:03:11.158Z,20.80
2018-05-18T13:05:39.314Z,15.80
2018-05-18T13:08:07.572Z,22.40
2018-05-18T13:10:36.605Z,12.52
2018-05-18T13:13:04.825Z,12.37
2018-05-18T13:15:32.966Z,15.90
2018-05-18T13:18:01.127Z,11.53
2018-05-18T13:20:29.281Z,13.63
2018-05-18T13:22:57.459Z,16.47
2018-05-18T13:25:25.605Z,15.70
2018-05-18T13:27:53.755Z,21.17
2018-05-18T13:30:21.927Z,15.73
2018-05-18T13:32:50.071Z,12.20
2018-05-18T13:35:18.257Z,15.73
2018-05-18T13:37:46.398Z,15.10
2018-05-18T13:40:14.572Z,14.23
2018-05-18T13:42:42.733Z,16.75
2018-05-18T13:45:10.918Z,11.40
2018-05-18T13:47:39.078Z,12.33
2018-05-18T13:50:07.225Z,14.17
2018-05-18T13:52:35.384Z,17.10
2018-05-18T13:55:03.559Z,12.30
2018-05-18T13:57:31.711Z,15.27
2018-05-18T13:59:59.859Z,17.23
2018-05-18T14:02:28.037Z,12.10
2018-05-18T14:04:56.214Z,15.50
2018-05-18T14:07:24.382Z,14.02
2018-05-18T14:09:52.557Z,18.45
2018-05-18T14:12:20.730Z,12.80
2018-05-18T14:14:48.884Z,18.13
2018-05-18T14:17:24.219Z,18.37
2018-05-18T14:19:58.134Z,14.83
2018-05-18T14:22:26.295Z,13.27
2018-05-18T14:24:54.442Z,15.27
2018-05-18T14:27:22.827Z,14.15
2018-05-18T14:29:50.995Z,12.82
2018-05-18T14:32:19.159Z,12.90
2018-05-18T14:34:47.477Z,14.93
2018-05-18T14:37:15.637Z,14.83
2018-05-18T14:39:43.977Z,11.27
2018-05-18T14:42:12.544Z,11.23
2018-05-18T14:44:40.758Z,12.70
2018-05-18T14:47:09.294Z,11.40
2018-05-18T14:49:37.455Z,11.70
2018-05-18T14:52:06.065Z,13.60
2018-05-18T14:54:34.244Z,12.27
2018-05-18T14:57:02.654Z,12.73
2018-05-18T14:59:30.850Z,15.93
2018-05-18T15:01:59.330Z,13.80
2018-05-18T15:04:27.501Z,12.90
2018-05-18T15:06:55.845Z,14.73
2018-05-18T15:09:24.068Z,17.20
2018-05-18T15:11:52.590Z,14.30
2018-05-18T15:14:20.775Z,25.90
2018-05-18T15:16:49.182Z,16.48
2018-05-18T15:19:17.315Z,13.20
2018-05-18T15:21:45.505Z,12.23
2018-05-18T15:24:14.068Z,14.68
2018-05-18T15:26:42.205Z,12.23
2018-05-18T15:29:10.359Z,15.40
2018-05-18T15:31:39.689Z,26.67
2018-05-18T15:34:07.845Z,26.80
2018-05-18T15:36:36.476Z,16.77
2018-05-18T15:39:05.412Z,13.00
2018-05-18T15:41:33.950Z,14.93
2018-05-18T15:44:03.194Z,12.87
2018-05-18T15:46:31.756Z,9.20
2018-05-18T15:48:59.900Z,11.27
2018-05-18T15:51:28.595Z,11.68
2018-05-18T15:53:56.734Z,11.80
2018-05-18T15:56:25.214Z,9.93
2018-05-18T15:58:54.347Z,15.90
2018-05-18T16:01:22.901Z,14.82
2018-05-18T16:03:51.423Z,14.83
2018-05-18T16:06:19.616Z,16.47
2018-05-18T16:08:48.152Z,14.17
2018-05-18T16:11:16.318Z,14.65
2018-05-18T16:13:44.462Z,12.93
2018-05-18T16:16:12.972Z,13.97
2018-05-18T16:18:41.978Z,11.23
2018-05-18T16:21:10.264Z,11.13
2018-05-18T16:23:38.794Z,16.43
2018-05-18T16:26:06.939Z,13.50
2018-05-18T16:28:35.115Z,13.40
2018-05-18T16:31:03.291Z,18.87
2018-05-18T16:33:31.809Z,11.30
2018-05-18T16:36:00.433Z,12.80
2018-05-18T16:38:28.721Z,14.30
2018-05-18T16:40:56.886Z,12.93
2018-05-18T16:43:25.029Z,12.40
2018-05-18T16:45:53.236Z,16.50
2018-05-18T16:48:21.407Z,20.45
2018-05-18T16:50:49.900Z,31.60
2018-05-18T16:53:18.059Z,20.00
2018-05-18T16:55:46.251Z,17.27
2018-05-18T16:58:14.557Z,18.93
2018-05-18T17:00:42.697Z,19.07
2018-05-18T17:03:11.315Z,13.40
2018-05-18T17:05:39.453Z,14.17
2018-05-18T17:08:07.615Z,17.83
2018-05-18T17:10:35.821Z,15.83
2018-05-18T17:13:03.968Z,12.97
2018-05-18T17:15:32.267Z,14.07
2018-05-18T17:18:00.797Z,13.97
2018-05-18T17:20:28.948Z,17.57
2018-05-18T17:22:57.282Z,16.67
2018-05-18T17:25:25.860Z,17.27
2018-05-18T17:27:54.440Z,17.92
2018-05-18T17:30:22.607Z,15.80
2018-05-18T17:32:50.984Z,12.63
2018-05-18T17:35:19.534Z,12.97
2018-05-18T17:37:48.157Z,15.77
2018-05-18T17:40:16.309Z,18.47
2018-05-18T17:42:44.480Z,18.10
2018-05-18T17:45:12.669Z,19.40
2018-05-18T17:47:41.201Z,12.90
2018-05-18T17:50:09.654Z,16.90
2018-05-18T17:52:37.836Z,13.57
2018-05-18T17:55:06.202Z,12.67
2018-05-18T17:57:34.966Z,16.90
2018-05-18T18:00:03.117Z,15.50
2018-05-18T18:02:31.303Z,16.63
2018-05-18T18:04:59.461Z,13.07
2018-05-18T18:07:27.823Z,16.20
2018-05-18T18:09:55.971Z,12.47
2018-05-18T18:12:24.865Z,16.10
2018-05-18T18:14:53.038Z,18.40
2018-05-18T18:17:21.251Z,17.27
2018-05-18T18:19:49.556Z,13.53
2018-05-18T18:22:17.906Z,14.70
2018-05-18T18:24:46.536Z,12.80
2018-05-18T18:27:14.695Z,18.60
2018-05-18T18:29:43.281Z,15.90
2018-05-18T18:32:11.619Z,11.67
2018-05-18T18:34:40.253Z,17.20
2018-05-18T18:37:08.495Z,15.93
2018-05-18T18:39:37.314Z,15.57
2018-05-18T18:42:05.462Z,21.23
2018-05-18T18:44:33.725Z,17.80
2018-05-18T18:47:02.314Z,13.25
2018-05-18T18:49:30.466Z,13.30
2018-05-18T18:51:58.648Z,14.90
2018-05-18T18:54:26.853Z,14.60
2018-05-18T18:56:55.058Z,12.13
2018-05-18T18:59:23.540Z,17.30
2018-05-18T19:01:51.703Z,13.63
2018-05-18T19:04:20.101Z,16.63
2018-05-18T19:06:48.861Z,17.70
2018-05-18T19:09:17.006Z,16.40
2018-05-18T19:11:46.162Z,19.48
2018-05-18T19:14:14.817Z,18.27
2018-05-18T19:16:42.983Z,20.83
2018-05-18T19:19:11.789Z,21.90
2018-05-18T19:21:39.985Z,19.00
2018-05-18T19:24:08.217Z,19.42
2018-05-18T19:26:36.343Z,12.80
2018-05-18T19:29:04.759Z,14.20
2018-05-18T19:31:32.909Z,13.60
2018-05-18T19:34:01.074Z,18.07
2018-05-18T19:36:30.301Z,20.53
2018-05-18T19:39:00.252Z,18.33
2018-05-18T19:41:28.446Z,17.37
2018-05-18T19:43:56.596Z,15.43
2018-05-18T19:46:24.758Z,13.90
2018-05-18T19:48:52.925Z,19.75
2018-05-18T19:51:22.415Z,24.63
2018-05-18T19:53:50.588Z,15.23
2018-05-18T19:56:18.721Z,18.80
2018-05-18T19:58:46.876Z,14.60
2018-05-18T20:01:15.215Z,21.25
2018-05-18T20:03:43.397Z,22.07
2018-05-18T20:06:14.266Z,16.53
2018-05-18T20:08:45.846Z,17.40
2018-05-18T20:11:13.995Z,13.90
2018-05-18T20:13:42.169Z,20.37
2018-05-18T20:16:10.326Z,18.53
2018-05-18T20:18:38.495Z,17.60
2018-05-18T20:21:06.677Z,19.43
2018-05-18T20:23:34.818Z,18.90
2018-05-18T20:26:02.980Z,24.92
2018-05-18T20:28:31.149Z,22.52
2018-05-18T20:30:59.327Z,14.70
2018-05-18T20:33:27.465Z,17.03
2018-05-18T20:35:55.642Z,16.63
2018-05-18T20:38:23.780Z,12.50
2018-05-18T20:40:51.964Z,20.57
2018-05-18T20:43:20.164Z,14.10
2018-05-18T20:45:54.939Z,18.70
2018-05-18T20:48:23.124Z,15.48
2018-05-18T20:50:51.263Z,21.07
2018-05-18T20:53:19.445Z,18.00
2018-05-18T20:55:47.625Z,14.13
2018-05-18T20:58:15.803Z,16.20
2018-05-18T21:00:43.969Z,17.67
2018-05-18T21:03:12.124Z,17.67
2018-05-18T21:05:40.277Z,18.73
2018-05-18T21:08:08.439Z,16.55
2018-05-18T21:10:36.639Z,14.80
2018-05-18T21:13:04.782Z,14.48
2018-05-18T21:15:32.957Z,21.50
2018-05-18T21:18:01.111Z,18.07
2018-05-18T21:20:29.272Z,16.47
2018-05-18T21:22:57.445Z,17.43
2018-05-18T21:25:25.636Z,13.20
2018-05-18T21:27:53.803Z,13.43
2018-05-18T21:30:24.732Z,16.67
2018-05-18T21:32:52.875Z,16.90
2018-05-18T21:35:21.052Z,15.53
2018-05-18T21:37:49.208Z,14.27
2018-05-18T21:40:17.362Z,18.10
2018-05-18T21:42:45.539Z,20.37
2018-05-18T21:45:13.690Z,14.10
2018-05-18T21:47:41.857Z,16.95
2018-05-18T21:50:10.000Z,16.10
2018-05-18T21:52:38.157Z,14.10
2018-05-18T21:55:06.302Z,14.00
2018-05-18T21:57:34.475Z,18.77
2018-05-18T22:00:02.637Z,19.17
2018-05-18T22:02:30.791Z,16.33
2018-05-18T22:04:59.494Z,18.30
2018-05-18T22:07:27.672Z,16.93
2018-05-18T22:09:55.823Z,10.40
2018-05-18T22:12:23.971Z,15.20
2018-05-18T22:14:52.129Z,19.53
2018-05-18T22:17:20.313Z,18.20
2018-05-18T22:19:48.471Z,14.20
2018-05-18T22:22:16.608Z,13.70
2018-05-18T22:24:44.789Z,13.00
2018-05-18T22:27:16.575Z,16.73
2018-05-18T22:29:45.403Z,14.02
2018-05-18T22:32:13.631Z,19.47
2018-05-18T22:34:41.808Z,12.60
2018-05-18T22:37:10.357Z,15.05
2018-05-18T22:39:39.063Z,17.52
2018-05-18T22:42:07.224Z,15.67
2018-05-18T22:44:35.387Z,12.70
2018-05-18T22:47:03.551Z,14.10
2018-05-18T22:49:31.698Z,15.73
2018-05-18T22:51:59.877Z,15.60
2018-05-18T22:54:28.017Z,17.00
2018-05-18T22:56:56.175Z,17.97
2018-05-18T22:59:26.193Z,14.20
2018-05-18T23:01:54.361Z,14.13
2018-05-18T23:04:22.509Z,18.73
2018-05-18T23:06:50.676Z,14.40
2018-05-18T23:09:25.825Z,11.27
2018-05-18T23:11:53.985Z,16.13
2018-05-18T23:14:22.138Z,18.40
2018-05-18T23:16:50.274Z,12.00
2018-05-18T23:19:18.435Z,10.50
2018-05-18T23:21:46.589Z,14.48
2018-05-18T23:24:18.196Z,14.75
2018-05-18T23:26:46.347Z,16.10
2018-05-18T23:29:15.170Z,11.00
2018-05-18T23:31:43.385Z,12.80
2018-05-18T23:34:11.477Z,16.70
2018-05-18T23:36:39.644Z,10.32
2018-05-18T23:39:13.087Z,21.37
2018-05-18T23:41:41.239Z,18.33
2018-05-18T23:44:09.396Z,18.43
2018-05-18T23:46:37.562Z,13.75
2018-05-18T23:49:05.713Z,18.20
2018-05-18T23:51:33.919Z,16.30
2018-05-18T23:54:02.059Z,15.20
2018-05-18T23:56:30.578Z,16.25
2018-05-18T23:58:58.717Z,14.77
